createdAt,value
2022-10-14T00:00:01.657Z,99.90
2022-10-14T00:02:36.099Z,99.90
2022-10-14T00:05:09.623Z,99.90
2022-10-14T00:07:41.444Z,99.90
2022-10-14T00:10:13.303Z,99.90
2022-10-14T00:12:45.783Z,99.90
2022-10-14T00:15:18.005Z,99.90
2022-10-14T00:17:49.769Z,99.90
2022-10-14T00:20:21.546Z,99.90
2022-10-14T00:22:55.392Z,99.90
2022-10-14T00:25:28.216Z,99.90
2022-10-14T00:28:03.642Z,99.90
2022-10-14T00:30:35.365Z,99.90
2022-10-14T00:33:07.117Z,99.90
2022-10-14T00:35:38.832Z,99.90
2022-10-14T00:38:10.593Z,99.90
2022-10-14T00:40:42.367Z,99.90
2022-10-14T00:43:14.425Z,99.90
2022-10-14T00:45:46.194Z,99.90
2022-10-14T00:48:19.232Z,99.90
2022-10-14T00:50:53.237Z,99.90
2022-10-14T00:53:27.535Z,99.90
2022-10-14T00:56:01.946Z,99.90
2022-10-14T00:58:33.803Z,99.90
2022-10-14T01:01:05.603Z,99.90
2022-10-14T01:03:37.551Z,99.90
2022-10-14T01:06:09.289Z,99.90
2022-10-14T01:08:59.065Z,99.90
2022-10-14T01:11:40.788Z,99.90
2022-10-14T01:14:15.328Z,99.90
2022-10-14T01:16:47.004Z,99.90
2022-10-14T01:19:33.875Z,99.90
2022-10-14T01:22:11.951Z,99.90
2022-10-14T01:24:43.665Z,99.90
2022-10-14T01:27:34.412Z,99.90
2022-10-14T01:30:06.236Z,99.90
2022-10-14T01:32:44.175Z,99.90
2022-10-14T01:35:25.067Z,99.90
2022-10-14T01:38:02.164Z,99.90
2022-10-14T01:40:49.641Z,99.90
2022-10-14T01:43:22.775Z,99.90
2022-10-14T01:45:55.303Z,99.90
2022-10-14T01:48:29.920Z,99.90
2022-10-14T01:51:02.956Z,99.90
2022-10-14T01:53:38.289Z,99.90
2022-10-14T01:56:11.560Z,99.90
2022-10-14T01:58:43.682Z,99.90
2022-10-14T02:01:15.755Z,99.90
2022-10-14T02:03:47.800Z,99.90
2022-10-14T02:06:25.704Z,99.90
2022-10-14T02:09:06.415Z,99.90
2022-10-14T02:11:58.391Z,99.90
2022-10-14T02:14:45.444Z,99.90
2022-10-14T02:17:20.556Z,99.90
2022-10-14T02:20:01.426Z,99.90
2022-10-14T02:22:39.474Z,99.90
2022-10-14T02:25:17.697Z,99.90
2022-10-14T02:27:50.627Z,99.90
2022-10-14T02:30:22.352Z,99.90
2022-10-14T02:32:54.256Z,99.90
2022-10-14T02:35:26.198Z,99.90
2022-10-14T02:38:02.790Z,99.90
2022-10-14T02:40:39.384Z,99.90
2022-10-14T02:43:11.742Z,99.90
2022-10-14T02:45:44.140Z,99.90
2022-10-14T02:48:15.865Z,99.90
2022-10-14T02:50:47.578Z,99.90
2022-10-14T02:53:19.400Z,99.90
2022-10-14T02:55:51.123Z,99.90
2022-10-14T02:58:25.421Z,99.90
2022-10-14T03:00:57.098Z,99.90
2022-10-14T03:03:28.827Z,99.90
2022-10-14T03:06:00.581Z,99.90
2022-10-14T03:08:34.994Z,99.90
2022-10-14T03:11:08.883Z,99.90
2022-10-14T03:13:43.084Z,99.90
2022-10-14T03:16:14.843Z,99.90
2022-10-14T03:18:46.750Z,99.90
2022-10-14T03:21:18.506Z,99.90
2022-10-14T03:23:50.815Z,99.90
2022-10-14T03:26:23.904Z,99.90
2022-10-14T03:28:55.741Z,99.90
2022-10-14T03:31:29.934Z,99.90
2022-10-14T03:34:02.287Z,99.90
2022-10-14T03:36:34.029Z,99.90
2022-10-14T03:39:05.812Z,99.90
2022-10-14T03:41:39.915Z,99.90
2022-10-14T03:44:11.724Z,99.90
2022-10-14T03:46:43.437Z,99.90
2022-10-14T03:49:17.375Z,99.90
2022-10-14T03:51:49.110Z,99.90
2022-10-14T03:54:20.852Z,99.90
2022-10-14T03:56:52.590Z,99.90
2022-10-14T03:59:24.385Z,99.90
2022-10-14T04:01:58.628Z,99.90
2022-10-14T04:04:30.445Z,99.90
2022-10-14T04:07:02.142Z,99.90
2022-10-14T04:09:33.873Z,99.90
2022-10-14T04:12:05.728Z,99.90
2022-10-14T04:14:37.522Z,99.90
2022-10-14T04:17:09.213Z,99.90
2022-10-14T04:19:40.971Z,99.90
2022-10-14T04:22:12.707Z,99.90
2022-10-14T04:24:44.560Z,99.90
2022-10-14T04:27:16.517Z,99.90
2022-10-14T04:29:48.354Z,99.90
2022-10-14T04:32:23.063Z,99.90
2022-10-14T04:34:55.119Z,99.90
2022-10-14T04:37:26.866Z,99.90
2022-10-14T04:39:58.638Z,99.90
2022-10-14T04:42:30.347Z,99.90
2022-10-14T04:45:04.731Z,99.90
2022-10-14T04:47:36.436Z,99.90
2022-10-14T04:50:08.473Z,99.90
2022-10-14T04:52:40.149Z,99.90
2022-10-14T04:55:12.255Z,99.90
2022-10-14T04:57:43.996Z,99.90
2022-10-14T05:00:15.895Z,99.90
2022-10-14T05:02:47.993Z,99.90
2022-10-14T05:05:19.819Z,99.90
2022-10-14T05:07:51.503Z,99.90
2022-10-14T05:10:23.309Z,99.90
2022-10-14T05:12:57.396Z,99.90
2022-10-14T05:15:29.206Z,99.90
2022-10-14T05:18:03.025Z,99.90
2022-10-14T05:20:38.740Z,99.90
2022-10-14T05:23:10.446Z,99.90
2022-10-14T05:25:42.488Z,99.90
2022-10-14T05:28:14.302Z,99.90
2022-10-14T05:30:48.489Z,99.90
2022-10-14T05:33:20.256Z,99.90
2022-10-14T05:35:59.219Z,99.90
2022-10-14T05:38:32.751Z,99.90
2022-10-14T05:41:04.539Z,99.90
2022-10-14T05:43:36.255Z,99.90
2022-10-14T05:46:07.959Z,99.90
2022-10-14T05:48:39.678Z,99.90
2022-10-14T05:51:11.456Z,99.90
2022-10-14T05:53:45.280Z,99.90
2022-10-14T05:56:17.028Z,99.90
2022-10-14T05:58:48.756Z,99.90
2022-10-14T06:01:23.259Z,99.90
2022-10-14T06:03:55.017Z,99.90
2022-10-14T06:06:29.114Z,99.90
2022-10-14T06:09:00.960Z,99.90
2022-10-14T06:11:32.710Z,99.90
2022-10-14T06:14:06.558Z,99.90
2022-10-14T06:16:40.393Z,99.90
2022-10-14T06:19:12.133Z,99.90
2022-10-14T06:21:44.925Z,99.90
2022-10-14T06:24:16.694Z,99.90
2022-10-14T06:26:48.651Z,99.90
2022-10-14T06:29:26.280Z,99.90
2022-10-14T06:31:58.042Z,99.90
2022-10-14T06:34:32.358Z,99.90
2022-10-14T06:37:04.080Z,99.90
2022-10-14T06:39:35.793Z,99.90
2022-10-14T06:42:13.060Z,99.90
2022-10-14T06:44:45.443Z,99.90
2022-10-14T06:47:17.166Z,99.90
2022-10-14T06:49:48.866Z,99.90
2022-10-14T06:52:20.785Z,99.90
2022-10-14T06:54:52.688Z,99.90
2022-10-14T06:57:24.397Z,99.90
2022-10-14T06:59:56.215Z,99.90
2022-10-14T07:02:27.969Z,99.90
2022-10-14T07:04:59.721Z,99.90
2022-10-14T07:07:31.827Z,99.90
2022-10-14T07:10:03.768Z,99.90
2022-10-14T07:12:35.521Z,99.90
2022-10-14T07:15:07.585Z,99.90
2022-10-14T07:17:39.849Z,99.90
2022-10-14T07:20:12.451Z,99.90
2022-10-14T07:22:44.236Z,99.90
2022-10-14T07:25:16.001Z,99.90
2022-10-14T07:27:47.753Z,99.90
2022-10-14T07:30:19.857Z,99.90
2022-10-14T07:32:51.603Z,99.90
2022-10-14T07:35:23.438Z,99.90
2022-10-14T07:37:55.562Z,99.90
2022-10-14T07:40:29.697Z,99.90
2022-10-14T07:43:01.514Z,99.90
2022-10-14T07:45:36.256Z,99.90
2022-10-14T07:48:08.314Z,99.90
2022-10-14T07:50:40.001Z,99.90
2022-10-14T07:53:11.728Z,99.90
2022-10-14T07:55:44.514Z,99.90
2022-10-14T07:58:16.259Z,99.90
2022-10-14T08:00:48.942Z,99.90
2022-10-14T08:03:23.615Z,99.90
2022-10-14T08:05:59.469Z,99.90
2022-10-14T08:08:31.461Z,99.90
2022-10-14T08:11:04.189Z,99.90
2022-10-14T08:13:41.872Z,61.70
2022-10-14T08:16:18.727Z,49.60
2022-10-14T08:18:51.001Z,61.30
2022-10-14T08:21:22.930Z,73.80
2022-10-14T08:23:55.163Z,48.00
2022-10-14T08:26:32.897Z,88.90
2022-10-14T08:29:10.577Z,73.60
2022-10-14T08:31:42.280Z,99.90
2022-10-14T08:34:14.142Z,99.90
2022-10-14T08:36:45.916Z,99.90
2022-10-14T08:39:23.136Z,99.90
2022-10-14T08:42:09.002Z,99.90
2022-10-14T08:44:43.162Z,99.90
2022-10-14T08:47:18.355Z,99.90
2022-10-14T08:49:56.953Z,93.00
2022-10-14T08:52:38.009Z,93.10
2022-10-14T08:55:28.771Z,79.50
2022-10-14T08:58:05.049Z,79.20
2022-10-14T09:00:41.335Z,57.90
2022-10-14T09:03:18.481Z,63.80
2022-10-14T09:05:57.731Z,75.50
2022-10-14T09:08:43.637Z,66.30
2022-10-14T09:11:17.609Z,83.90
2022-10-14T09:13:51.116Z,99.90
2022-10-14T09:16:26.468Z,99.90
2022-10-14T09:19:02.541Z,99.90
2022-10-14T09:21:52.215Z,99.90
2022-10-14T09:24:30.610Z,99.90
2022-10-14T09:27:22.007Z,99.90
2022-10-14T09:30:01.178Z,99.30
2022-10-14T09:32:44.100Z,99.90
2022-10-14T09:35:27.929Z,93.50
2022-10-14T09:37:59.988Z,87.60
2022-10-14T09:40:42.832Z,71.20
2022-10-14T09:43:18.743Z,31.30
2022-10-14T09:46:01.794Z,32.50
2022-10-14T09:48:44.496Z,8.20
2022-10-14T09:51:21.600Z,1.00
2022-10-14T09:53:54.555Z,1.00
2022-10-14T09:56:38.960Z,1.00
2022-10-14T09:59:23.240Z,1.00
2022-10-14T10:01:56.354Z,1.00
2022-10-14T10:04:33.614Z,1.00
2022-10-14T10:07:09.016Z,1.00
2022-10-14T10:09:40.762Z,1.00
2022-10-14T10:12:22.827Z,1.00
2022-10-14T10:14:58.698Z,1.00
2022-10-14T10:17:32.765Z,1.00
2022-10-14T10:20:09.788Z,1.00
2022-10-14T10:22:43.887Z,1.00
2022-10-14T10:25:20.098Z,1.00
2022-10-14T10:27:52.811Z,1.00
2022-10-14T10:30:30.376Z,1.00
2022-10-14T10:33:23.078Z,1.00
2022-10-14T10:36:07.336Z,1.00
2022-10-14T10:38:58.059Z,1.00
2022-10-14T10:41:44.190Z,1.00
2022-10-14T10:44:15.901Z,1.00
2022-10-14T10:46:53.132Z,1.00
2022-10-14T10:49:27.915Z,1.00
2022-10-14T10:52:17.381Z,1.00
2022-10-14T10:54:55.010Z,1.00
2022-10-14T10:57:36.063Z,1.00
2022-10-14T11:00:12.713Z,1.00
2022-10-14T11:02:45.994Z,1.00
2022-10-14T11:05:22.201Z,1.00
2022-10-14T11:08:31.127Z,1.10
2022-10-14T11:11:40.633Z,1.00
2022-10-14T11:14:32.515Z,1.00
2022-10-14T11:17:13.301Z,1.00
2022-10-14T11:19:51.920Z,17.10
2022-10-14T11:22:34.168Z,36.80
2022-10-14T11:25:24.452Z,30.30
2022-10-14T11:28:03.013Z,33.90
2022-10-14T11:30:46.747Z,27.60
2022-10-14T11:33:25.061Z,45.60
2022-10-14T11:36:26.174Z,32.40
2022-10-14T11:39:00.981Z,29.30
2022-10-14T11:41:59.021Z,25.60
2022-10-14T11:44:36.579Z,24.40
2022-10-14T11:47:19.785Z,18.00
2022-10-14T11:49:55.816Z,11.70
2022-10-14T11:52:37.323Z,1.00
2022-10-14T11:55:14.553Z,1.00
2022-10-14T11:57:55.046Z,1.00
2022-10-14T12:00:28.763Z,1.00
2022-10-14T12:03:21.781Z,1.00
2022-10-14T12:05:59.454Z,1.00
2022-10-14T12:08:40.302Z,1.00
2022-10-14T12:11:19.737Z,1.00
2022-10-14T12:13:52.712Z,1.00
2022-10-14T12:16:24.693Z,1.00
2022-10-14T12:18:56.974Z,1.00
2022-10-14T12:21:31.541Z,1.00
2022-10-14T12:24:06.025Z,1.00
2022-10-14T12:26:59.270Z,1.00
2022-10-14T12:29:37.019Z,1.00
2022-10-14T12:32:21.348Z,1.00
2022-10-14T12:34:54.675Z,1.00
2022-10-14T12:37:32.734Z,1.00
2022-10-14T12:40:07.808Z,1.00
2022-10-14T12:42:42.319Z,1.00
2022-10-14T12:45:18.538Z,1.00
2022-10-14T12:48:01.872Z,1.00
2022-10-14T12:50:40.177Z,1.00
2022-10-14T12:53:25.831Z,1.00
2022-10-14T12:55:58.949Z,1.00
2022-10-14T12:58:30.697Z,1.00
2022-10-14T13:01:22.727Z,1.00
2022-10-14T13:03:54.581Z,1.00
2022-10-14T13:06:26.324Z,1.00
2022-10-14T13:09:13.844Z,1.00
2022-10-14T13:11:51.530Z,1.00
2022-10-14T13:14:23.232Z,1.00
2022-10-14T13:16:56.222Z,1.00
2022-10-14T13:19:31.000Z,1.00
2022-10-14T13:22:03.816Z,1.00
2022-10-14T13:24:39.106Z,1.00
2022-10-14T13:27:10.786Z,1.00
2022-10-14T13:29:53.090Z,1.00
2022-10-14T13:32:34.168Z,1.00
2022-10-14T13:35:12.686Z,1.00
2022-10-14T13:37:56.766Z,1.00
2022-10-14T13:40:34.664Z,1.00
2022-10-14T13:43:13.269Z,1.00
2022-10-14T13:45:49.728Z,1.00
2022-10-14T13:48:30.490Z,1.00
2022-10-14T13:51:24.653Z,1.00
2022-10-14T13:54:23.261Z,1.00
2022-10-14T13:57:13.814Z,1.00
2022-10-14T14:02:42.792Z,1.00
2022-10-14T14:05:16.260Z,1.00
2022-10-14T14:11:03.749Z,1.00
2022-10-14T14:13:46.781Z,1.00
2022-10-14T14:16:23.001Z,1.00
2022-10-14T14:19:07.392Z,1.00
2022-10-14T14:21:40.548Z,1.00
2022-10-14T14:24:19.980Z,1.00
2022-10-14T14:26:55.577Z,1.00
2022-10-14T14:29:28.403Z,1.00
2022-10-14T14:32:07.462Z,1.00
2022-10-14T14:34:42.668Z,1.00
2022-10-14T14:37:48.270Z,1.00
2022-10-14T14:40:23.927Z,1.00
2022-10-14T14:43:02.593Z,1.00
2022-10-14T14:45:37.226Z,1.00
2022-10-14T14:48:12.881Z,1.00
2022-10-14T14:50:45.112Z,1.00
2022-10-14T14:53:18.377Z,1.00
2022-10-14T14:55:53.272Z,1.00
2022-10-14T14:58:25.087Z,1.00
2022-10-14T15:00:57.227Z,1.00
2022-10-14T15:03:33.974Z,4.20
2022-10-14T15:06:08.910Z,10.40
2022-10-14T15:08:40.649Z,23.90
2022-10-14T15:11:15.345Z,35.30
2022-10-14T15:13:55.198Z,50.40
2022-10-14T15:16:34.222Z,73.80
2022-10-14T15:19:13.310Z,91.50
2022-10-14T15:21:47.444Z,94.90
2022-10-14T15:24:21.775Z,99.90
2022-10-14T15:26:55.868Z,99.90
2022-10-14T15:29:27.615Z,99.90
2022-10-14T15:32:02.519Z,99.90
2022-10-14T15:34:35.778Z,99.90
2022-10-14T15:37:12.014Z,99.90
2022-10-14T15:39:43.759Z,99.90
2022-10-14T15:42:15.645Z,99.90
2022-10-14T15:44:47.351Z,99.90
2022-10-14T15:47:19.265Z,99.90
2022-10-14T15:49:51.023Z,99.90
2022-10-14T15:52:26.087Z,99.90
2022-10-14T15:55:01.768Z,99.90
2022-10-14T15:57:33.515Z,99.90
2022-10-14T16:00:07.966Z,99.90
2022-10-14T16:02:41.468Z,99.90
2022-10-14T16:05:22.365Z,99.90
2022-10-14T16:07:54.194Z,99.90
2022-10-14T16:10:29.239Z,99.90
2022-10-14T16:13:03.730Z,99.90
2022-10-14T16:16:02.098Z,99.90
2022-10-14T16:18:33.821Z,99.90
2022-10-14T16:21:05.701Z,99.90
2022-10-14T16:23:38.779Z,99.90
2022-10-14T16:26:10.778Z,99.90
2022-10-14T16:28:42.566Z,99.90
2022-10-14T16:31:14.711Z,99.90
2022-10-14T16:33:49.009Z,99.90
2022-10-14T16:36:24.942Z,99.90
2022-10-14T16:38:56.837Z,99.90
2022-10-14T16:41:29.219Z,99.90
2022-10-14T16:44:00.978Z,99.90
2022-10-14T16:46:51.428Z,99.90
2022-10-14T16:49:23.201Z,99.90
2022-10-14T16:51:54.948Z,99.90
2022-10-14T16:54:27.457Z,99.90
2022-10-14T16:57:03.837Z,99.90
2022-10-14T16:59:37.806Z,99.90
2022-10-14T17:02:17.291Z,99.90
2022-10-14T17:04:51.824Z,99.90
2022-10-14T17:07:23.586Z,99.90
2022-10-14T17:09:55.374Z,99.90
2022-10-14T17:12:27.084Z,99.90
2022-10-14T17:14:58.815Z,99.90
2022-10-14T17:17:30.547Z,99.90
2022-10-14T17:20:02.351Z,99.90
2022-10-14T17:22:34.114Z,99.90
2022-10-14T17:25:08.471Z,99.90
2022-10-14T17:27:43.212Z,99.90
2022-10-14T17:30:15.010Z,99.90
2022-10-14T17:32:46.768Z,99.90
2022-10-14T17:35:18.528Z,99.90
2022-10-14T17:37:52.445Z,99.90
2022-10-14T17:40:26.744Z,99.90
2022-10-14T17:43:01.080Z,99.90
2022-10-14T17:45:32.951Z,99.90
2022-10-14T17:48:04.744Z,99.90
2022-10-14T17:50:36.655Z,99.90
2022-10-14T17:53:08.433Z,99.90
2022-10-14T17:55:40.206Z,99.90
2022-10-14T17:58:11.906Z,99.90
2022-10-14T18:00:43.871Z,99.90
2022-10-14T18:03:15.648Z,99.90
2022-10-14T18:05:48.949Z,99.90
2022-10-14T18:08:20.938Z,99.90
2022-10-14T18:10:52.683Z,99.90
2022-10-14T18:13:24.362Z,99.90
2022-10-14T18:15:56.874Z,99.90
2022-10-14T18:18:28.719Z,99.90
2022-10-14T18:21:02.644Z,99.90
2022-10-14T18:23:35.374Z,99.90
2022-10-14T18:26:13.412Z,99.90
2022-10-14T18:28:47.894Z,99.90
2022-10-14T18:31:21.583Z,99.90
2022-10-14T18:33:58.732Z,99.90
2022-10-14T18:36:33.001Z,99.90
2022-10-14T18:39:08.084Z,99.90
2022-10-14T18:41:39.940Z,99.90
2022-10-14T18:44:11.701Z,99.90
2022-10-14T18:46:43.453Z,99.90
2022-10-14T18:49:17.408Z,99.90
2022-10-14T18:51:49.306Z,99.90
2022-10-14T18:54:21.337Z,99.90
2022-10-14T18:56:53.543Z,99.90
2022-10-14T18:59:30.152Z,99.90
2022-10-14T19:02:02.406Z,99.90
2022-10-14T19:04:34.174Z,99.90
2022-10-14T19:07:07.321Z,99.90
2022-10-14T19:09:39.033Z,99.90
2022-10-14T19:12:29.450Z,99.90
2022-10-14T19:15:01.160Z,99.90
2022-10-14T19:17:35.387Z,99.90
2022-10-14T19:20:08.500Z,99.90
2022-10-14T19:22:44.870Z,99.90
2022-10-14T19:25:20.539Z,99.90
2022-10-14T19:27:53.331Z,99.90
2022-10-14T19:30:27.365Z,99.90
2022-10-14T19:33:01.708Z,99.90
2022-10-14T19:35:33.419Z,99.90
2022-10-14T19:38:05.197Z,99.90
2022-10-14T19:40:36.915Z,99.90
2022-10-14T19:43:11.098Z,99.90
2022-10-14T19:45:46.979Z,99.90
2022-10-14T19:48:22.938Z,99.90
2022-10-14T19:51:03.151Z,99.90
2022-10-14T19:53:38.535Z,99.90
2022-10-14T19:56:13.668Z,99.90
2022-10-14T19:58:45.411Z,99.90
2022-10-14T20:01:20.391Z,99.90
2022-10-14T20:03:52.942Z,99.90
2022-10-14T20:06:24.796Z,99.90
2022-10-14T20:08:56.805Z,99.90
2022-10-14T20:11:33.693Z,99.90
2022-10-14T20:14:05.789Z,99.90
2022-10-14T20:16:38.866Z,99.90
2022-10-14T20:19:11.204Z,99.90
2022-10-14T20:21:43.163Z,99.90
2022-10-14T20:24:15.667Z,99.90
2022-10-14T20:26:47.773Z,99.90
2022-10-14T20:29:20.178Z,99.90
2022-10-14T20:31:54.618Z,99.90
2022-10-14T20:34:26.432Z,99.90
2022-10-14T20:36:58.142Z,99.90
2022-10-14T20:39:30.071Z,99.90
2022-10-14T20:42:01.784Z,99.90
2022-10-14T20:44:35.695Z,99.90
2022-10-14T20:47:08.428Z,99.90
2022-10-14T20:49:40.205Z,99.90
2022-10-14T20:52:14.959Z,99.90
2022-10-14T20:54:48.873Z,99.90
2022-10-14T20:57:20.863Z,99.90
2022-10-14T20:59:55.037Z,99.90
2022-10-14T21:02:27.011Z,99.90
2022-10-14T21:04:58.847Z,99.90
2022-10-14T21:07:30.536Z,99.90
2022-10-14T21:10:02.725Z,99.90
2022-10-14T21:12:34.442Z,99.90
2022-10-14T21:15:06.453Z,99.90
2022-10-14T21:17:46.592Z,99.90
2022-10-14T21:20:18.389Z,99.90
2022-10-14T21:22:50.236Z,99.90
2022-10-14T21:25:22.021Z,99.90
2022-10-14T21:27:53.751Z,99.90
2022-10-14T21:30:25.511Z,99.90
2022-10-14T21:32:57.367Z,99.90
2022-10-14T21:35:31.548Z,99.90
2022-10-14T21:38:03.305Z,99.90
2022-10-14T21:40:35.101Z,99.90
2022-10-14T21:43:06.916Z,99.90
2022-10-14T21:45:38.606Z,99.90
2022-10-14T21:48:10.318Z,99.90
2022-10-14T21:50:42.111Z,99.90
2022-10-14T21:53:15.373Z,99.90
2022-10-14T21:55:52.030Z,99.90
2022-10-14T21:58:25.849Z,99.90
2022-10-14T22:01:17.186Z,99.90
2022-10-14T22:03:58.711Z,99.90
2022-10-14T22:06:31.265Z,99.90
2022-10-14T22:09:04.502Z,99.90
2022-10-14T22:11:37.694Z,99.90
2022-10-14T22:14:17.488Z,99.90
2022-10-14T22:16:49.255Z,99.90
2022-10-14T22:19:21.023Z,99.90
2022-10-14T22:21:52.844Z,99.90
2022-10-14T22:24:24.953Z,99.90
2022-10-14T22:26:56.690Z,99.90
2022-10-14T22:29:30.769Z,99.90
2022-10-14T22:32:02.655Z,99.90
2022-10-14T22:34:34.380Z,99.90
2022-10-14T22:37:08.506Z,99.90
2022-10-14T22:39:40.224Z,99.90
2022-10-14T22:42:12.109Z,99.90
2022-10-14T22:44:43.834Z,99.90
2022-10-14T22:47:15.577Z,99.90
2022-10-14T22:49:47.376Z,99.90
2022-10-14T22:52:19.145Z,99.90
2022-10-14T22:54:50.880Z,99.90
2022-10-14T22:57:22.643Z,99.90
2022-10-14T22:59:54.382Z,99.90
2022-10-14T23:02:26.443Z,99.90
2022-10-14T23:04:58.850Z,99.90
2022-10-14T23:07:30.822Z,99.90
2022-10-14T23:10:02.540Z,99.90
2022-10-14T23:12:34.317Z,99.90
2022-10-14T23:15:06.240Z,99.90
2022-10-14T23:17:37.999Z,99.90
2022-10-14T23:20:10.720Z,99.90
2022-10-14T23:22:42.486Z,99.90
2022-10-14T23:25:14.263Z,99.90
2022-10-14T23:27:46.087Z,99.90
2022-10-14T23:30:17.960Z,99.90
2022-10-14T23:32:49.738Z,99.90
2022-10-14T23:35:21.492Z,99.90
2022-10-14T23:37:53.283Z,99.90
2022-10-14T23:40:24.986Z,99.90
2022-10-14T23:42:56.712Z,99.90
2022-10-14T23:45:28.714Z,99.90
2022-10-14T23:48:00.461Z,99.90
2022-10-14T23:50:32.179Z,99.90
2022-10-14T23:53:03.946Z,99.90
2022-10-14T23:55:35.695Z,99.90
2022-10-14T23:58:07.566Z,99.90
